sensor_id;sensor_type;location;lat;lon;timestamp;temperature;humidity
19732;DHT22;10017;54.350;18.532;2022-09-29T00:02:04;7.20;99.90
19732;DHT22;10017;54.350;18.532;2022-09-29T00:04:36;7.20;99.90
19732;DHT22;10017;54.350;18.532;2022-09-29T00:07:07;7.20;99.90
19732;DHT22;10017;54.350;18.532;2022-09-29T00:09:39;7.20;99.90
19732;DHT22;10017;54.350;18.532;2022-09-29T00:12:11;7.20;99.90
19732;DHT22;10017;54.350;18.532;2022-09-29T00:14:43;7.20;99.90
19732;DHT22;10017;54.350;18.532;2022-09-29T00:17:18;7.20;99.90
19732;DHT22;10017;54.350;18.532;2022-09-29T00:19:50;7.20;99.90
19732;DHT22;10017;54.350;18.532;2022-09-29T00:22:22;7.20;99.90
19732;DHT22;10017;54.350;18.532;2022-09-29T00:24:56;7.10;99.90
19732;DHT22;10017;54.350;18.532;2022-09-29T00:27:28;7.20;99.90
19732;DHT22;10017;54.350;18.532;2022-09-29T00:29:59;7.10;99.90
19732;DHT22;10017;54.350;18.532;2022-09-29T00:32:31;7.10;99.90
19732;DHT22;10017;54.350;18.532;2022-09-29T00:35:03;7.10;99.90
19732;DHT22;10017;54.350;18.532;2022-09-29T00:37:35;7.20;99.90
19732;DHT22;10017;54.350;18.532;2022-09-29T00:40:07;7.10;99.90
19732;DHT22;10017;54.350;18.532;2022-09-29T00:42:42;7.10;99.90
19732;DHT22;10017;54.350;18.532;2022-09-29T00:45:20;7.20;99.90
19732;DHT22;10017;54.350;18.532;2022-09-29T00:48:06;7.20;99.90
19732;DHT22;10017;54.350;18.532;2022-09-29T00:50:47;7.20;99.90
19732;DHT22;10017;54.350;18.532;2022-09-29T00:53:20;7.20;99.90
19732;DHT22;10017;54.350;18.532;2022-09-29T00:55:57;7.20;99.90
19732;DHT22;10017;54.350;18.532;2022-09-29T00:58:31;7.20;99.90
19732;DHT22;10017;54.350;18.532;2022-09-29T01:01:03;7.20;99.90
19732;DHT22;10017;54.350;18.532;2022-09-29T01:03:37;7.30;99.90
19732;DHT22;10017;54.350;18.532;2022-09-29T01:06:15;7.20;99.90
19732;DHT22;10017;54.350;18.532;2022-09-29T01:11:28;7.30;99.90
19732;DHT22;10017;54.350;18.532;2022-09-29T01:14:01;7.20;99.90
19732;DHT22;10017;54.350;18.532;2022-09-29T01:16:36;7.20;99.90
19732;DHT22;10017;54.350;18.532;2022-09-29T01:19:46;7.20;99.90
19732;DHT22;10017;54.350;18.532;2022-09-29T01:27:43;7.20;99.90
19732;DHT22;10017;54.350;18.532;2022-09-29T01:30:20;7.20;99.90
19732;DHT22;10017;54.350;18.532;2022-09-29T01:39:02;7.20;99.90
19732;DHT22;10017;54.350;18.532;2022-09-29T01:41:15;7.20;99.90
19732;DHT22;10017;54.350;18.532;2022-09-29T01:46:23;7.30;99.90
19732;DHT22;10017;54.350;18.532;2022-09-29T01:48:56;7.30;99.90
19732;DHT22;10017;54.350;18.532;2022-09-29T01:51:31;7.30;99.90
19732;DHT22;10017;54.350;18.532;2022-09-29T01:54:11;7.40;99.90
19732;DHT22;10017;54.350;18.532;2022-09-29T01:57:01;7.40;99.90
19732;DHT22;10017;54.350;18.532;2022-09-29T02:02:21;7.40;99.90
19732;DHT22;10017;54.350;18.532;2022-09-29T02:04:57;7.40;99.90
19732;DHT22;10017;54.350;18.532;2022-09-29T02:07:36;7.40;99.90
19732;DHT22;10017;54.350;18.532;2022-09-29T02:10:09;7.40;99.90
19732;DHT22;10017;54.350;18.532;2022-09-29T02:12:42;7.50;99.90
19732;DHT22;10017;54.350;18.532;2022-09-29T02:15:17;7.50;99.90
19732;DHT22;10017;54.350;18.532;2022-09-29T02:17:49;7.50;99.90
19732;DHT22;10017;54.350;18.532;2022-09-29T02:20:23;7.50;99.90
19732;DHT22;10017;54.350;18.532;2022-09-29T02:22:56;7.60;99.90
19732;DHT22;10017;54.350;18.532;2022-09-29T02:25:28;7.50;99.90
19732;DHT22;10017;54.350;18.532;2022-09-29T02:27:59;7.60;99.90
19732;DHT22;10017;54.350;18.532;2022-09-29T02:30:32;7.60;99.90
19732;DHT22;10017;54.350;18.532;2022-09-29T02:33:03;7.60;99.90
19732;DHT22;10017;54.350;18.532;2022-09-29T02:35:44;7.60;99.90
19732;DHT22;10017;54.350;18.532;2022-09-29T02:38:29;7.60;99.90
19732;DHT22;10017;54.350;18.532;2022-09-29T02:43:40;7.70;99.90
19732;DHT22;10017;54.350;18.532;2022-09-29T02:56:44;7.70;99.90
19732;DHT22;10017;54.350;18.532;2022-09-29T02:59:20;7.70;99.90
19732;DHT22;10017;54.350;18.532;2022-09-29T03:01:55;7.70;99.90
19732;DHT22;10017;54.350;18.532;2022-09-29T03:04:27;7.70;99.90
19732;DHT22;10017;54.350;18.532;2022-09-29T03:07:01;7.70;99.90
19732;DHT22;10017;54.350;18.532;2022-09-29T03:09:33;7.70;99.90
19732;DHT22;10017;54.350;18.532;2022-09-29T03:12:05;7.70;99.90
19732;DHT22;10017;54.350;18.532;2022-09-29T03:14:37;7.70;99.90
19732;DHT22;10017;54.350;18.532;2022-09-29T03:17:11;7.70;99.90
19732;DHT22;10017;54.350;18.532;2022-09-29T03:19:43;7.80;99.90
19732;DHT22;10017;54.350;18.532;2022-09-29T03:22:15;7.80;99.90
19732;DHT22;10017;54.350;18.532;2022-09-29T03:24:46;7.80;99.90
19732;DHT22;10017;54.350;18.532;2022-09-29T03:27:18;7.80;99.90
19732;DHT22;10017;54.350;18.532;2022-09-29T03:29:50;7.80;99.90
19732;DHT22;10017;54.350;18.532;2022-09-29T03:32:22;7.80;99.90
19732;DHT22;10017;54.350;18.532;2022-09-29T03:34:54;7.80;99.90
19732;DHT22;10017;54.350;18.532;2022-09-29T03:37:26;7.80;99.90
19732;DHT22;10017;54.350;18.532;2022-09-29T03:40:00;7.80;99.90
19732;DHT22;10017;54.350;18.532;2022-09-29T03:42:32;7.80;99.90
19732;DHT22;10017;54.350;18.532;2022-09-29T03:45:04;7.80;99.90
19732;DHT22;10017;54.350;18.532;2022-09-29T03:47:38;7.80;99.90
19732;DHT22;10017;54.350;18.532;2022-09-29T03:50:10;7.80;99.90
19732;DHT22;10017;54.350;18.532;2022-09-29T03:52:42;7.80;99.90
19732;DHT22;10017;54.350;18.532;2022-09-29T03:55:14;7.80;99.90
19732;DHT22;10017;54.350;18.532;2022-09-29T03:57:51;7.80;99.90
19732;DHT22;10017;54.350;18.532;2022-09-29T04:00:23;7.80;99.90
19732;DHT22;10017;54.350;18.532;2022-09-29T04:02:54;7.80;99.90
19732;DHT22;10017;54.350;18.532;2022-09-29T04:05:27;7.80;99.90
19732;DHT22;10017;54.350;18.532;2022-09-29T04:08:04;7.80;99.90
19732;DHT22;10017;54.350;18.532;2022-09-29T04:10:37;7.90;99.90
19732;DHT22;10017;54.350;18.532;2022-09-29T04:13:09;7.90;99.90
19732;DHT22;10017;54.350;18.532;2022-09-29T04:15:40;7.90;99.90
19732;DHT22;10017;54.350;18.532;2022-09-29T04:18:12;7.90;99.90
19732;DHT22;10017;54.350;18.532;2022-09-29T04:20:44;7.90;99.90
19732;DHT22;10017;54.350;18.532;2022-09-29T04:23:16;7.90;99.90
19732;DHT22;10017;54.350;18.532;2022-09-29T04:25:48;7.90;99.90
19732;DHT22;10017;54.350;18.532;2022-09-29T04:28:20;7.90;99.90
19732;DHT22;10017;54.350;18.532;2022-09-29T04:30:52;7.90;99.90
19732;DHT22;10017;54.350;18.532;2022-09-29T04:33:26;7.90;99.90
19732;DHT22;10017;54.350;18.532;2022-09-29T04:35:58;7.90;99.90
19732;DHT22;10017;54.350;18.532;2022-09-29T04:38:30;7.90;99.90
19732;DHT22;10017;54.350;18.532;2022-09-29T04:41:04;7.80;99.90
19732;DHT22;10017;54.350;18.532;2022-09-29T04:43:36;7.80;99.90
19732;DHT22;10017;54.350;18.532;2022-09-29T04:46:08;7.80;99.90
19732;DHT22;10017;54.350;18.532;2022-09-29T04:48:40;7.70;99.90
19732;DHT22;10017;54.350;18.532;2022-09-29T04:51:12;7.70;99.90
19732;DHT22;10017;54.350;18.532;2022-09-29T04:53:44;7.70;99.90
19732;DHT22;10017;54.350;18.532;2022-09-29T04:56:16;7.70;99.90
19732;DHT22;10017;54.350;18.532;2022-09-29T04:58:48;7.70;99.90
19732;DHT22;10017;54.350;18.532;2022-09-29T05:01:19;7.70;99.90
19732;DHT22;10017;54.350;18.532;2022-09-29T05:03:51;7.70;99.90
19732;DHT22;10017;54.350;18.532;2022-09-29T05:06:23;7.70;99.90
19732;DHT22;10017;54.350;18.532;2022-09-29T05:08:55;7.70;99.90
19732;DHT22;10017;54.350;18.532;2022-09-29T05:11:27;7.80;99.90
19732;DHT22;10017;54.350;18.532;2022-09-29T05:13:58;7.80;99.90
19732;DHT22;10017;54.350;18.532;2022-09-29T05:16:31;7.80;99.90
19732;DHT22;10017;54.350;18.532;2022-09-29T05:19:02;7.80;99.90
19732;DHT22;10017;54.350;18.532;2022-09-29T05:21:34;7.80;99.90
19732;DHT22;10017;54.350;18.532;2022-09-29T05:24:06;7.80;99.90
19732;DHT22;10017;54.350;18.532;2022-09-29T05:26:38;7.80;99.90
19732;DHT22;10017;54.350;18.532;2022-09-29T05:29:12;7.80;99.90
19732;DHT22;10017;54.350;18.532;2022-09-29T05:31:44;7.80;99.90
19732;DHT22;10017;54.350;18.532;2022-09-29T05:34:16;7.80;99.90
19732;DHT22;10017;54.350;18.532;2022-09-29T05:36:47;7.80;99.90
19732;DHT22;10017;54.350;18.532;2022-09-29T05:39:22;7.80;99.90
19732;DHT22;10017;54.350;18.532;2022-09-29T05:41:54;7.80;99.90
19732;DHT22;10017;54.350;18.532;2022-09-29T05:44:30;7.80;99.90
19732;DHT22;10017;54.350;18.532;2022-09-29T05:47:01;7.80;99.90
19732;DHT22;10017;54.350;18.532;2022-09-29T05:49:33;8.00;99.90
19732;DHT22;10017;54.350;18.532;2022-09-29T05:52:07;8.10;99.90
19732;DHT22;10017;54.350;18.532;2022-09-29T05:54:39;8.10;99.90
19732;DHT22;10017;54.350;18.532;2022-09-29T05:57:11;8.20;99.90
19732;DHT22;10017;54.350;18.532;2022-09-29T05:59:43;8.30;99.90
19732;DHT22;10017;54.350;18.532;2022-09-29T06:02:14;8.50;99.90
19732;DHT22;10017;54.350;18.532;2022-09-29T06:04:47;8.60;99.90
19732;DHT22;10017;54.350;18.532;2022-09-29T06:07:19;8.80;99.90
19732;DHT22;10017;54.350;18.532;2022-09-29T06:09:51;9.00;99.90
19732;DHT22;10017;54.350;18.532;2022-09-29T06:12:23;9.20;99.90
19732;DHT22;10017;54.350;18.532;2022-09-29T06:14:55;9.40;99.90
19732;DHT22;10017;54.350;18.532;2022-09-29T06:17:26;9.50;99.90
19732;DHT22;10017;54.350;18.532;2022-09-29T06:19:58;9.60;99.90
19732;DHT22;10017;54.350;18.532;2022-09-29T06:22:32;9.70;99.90
19732;DHT22;10017;54.350;18.532;2022-09-29T06:25:04;9.70;99.90
19732;DHT22;10017;54.350;18.532;2022-09-29T06:27:36;9.80;99.90
19732;DHT22;10017;54.350;18.532;2022-09-29T06:30:08;9.80;99.90
19732;DHT22;10017;54.350;18.532;2022-09-29T06:32:40;9.80;99.90
19732;DHT22;10017;54.350;18.532;2022-09-29T06:35:11;9.90;99.90
19732;DHT22;10017;54.350;18.532;2022-09-29T06:38:02;10.00;99.90
19732;DHT22;10017;54.350;18.532;2022-09-29T06:40:34;9.90;99.90
19732;DHT22;10017;54.350;18.532;2022-09-29T06:43:06;9.90;99.90
19732;DHT22;10017;54.350;18.532;2022-09-29T06:45:38;9.90;99.90
19732;DHT22;10017;54.350;18.532;2022-09-29T06:48:12;10.00;99.90
19732;DHT22;10017;54.350;18.532;2022-09-29T06:50:44;10.00;99.90
19732;DHT22;10017;54.350;18.532;2022-09-29T06:53:30;10.00;99.90
19732;DHT22;10017;54.350;18.532;2022-09-29T06:56:09;9.90;99.90
19732;DHT22;10017;54.350;18.532;2022-09-29T06:58:40;9.90;99.90
19732;DHT22;10017;54.350;18.532;2022-09-29T07:01:12;9.90;99.90
19732;DHT22;10017;54.350;18.532;2022-09-29T07:03:44;9.90;99.90
19732;DHT22;10017;54.350;18.532;2022-09-29T07:06:19;10.00;99.90
19732;DHT22;10017;54.350;18.532;2022-09-29T07:08:54;9.90;99.90
19732;DHT22;10017;54.350;18.532;2022-09-29T07:11:26;10.00;99.90
19732;DHT22;10017;54.350;18.532;2022-09-29T07:13:58;10.10;99.90
19732;DHT22;10017;54.350;18.532;2022-09-29T07:16:30;10.60;99.90
19732;DHT22;10017;54.350;18.532;2022-09-29T07:19:02;11.00;99.90
19732;DHT22;10017;54.350;18.532;2022-09-29T07:21:34;11.40;99.90
19732;DHT22;10017;54.350;18.532;2022-09-29T07:24:06;11.50;99.90
19732;DHT22;10017;54.350;18.532;2022-09-29T07:26:40;11.70;99.90
19732;DHT22;10017;54.350;18.532;2022-09-29T07:29:12;11.90;99.90
19732;DHT22;10017;54.350;18.532;2022-09-29T07:31:51;12.00;99.90
19732;DHT22;10017;54.350;18.532;2022-09-29T07:34:25;12.10;99.90
19732;DHT22;10017;54.350;18.532;2022-09-29T07:36:57;12.00;99.90
19732;DHT22;10017;54.350;18.532;2022-09-29T07:39:31;11.80;99.90
19732;DHT22;10017;54.350;18.532;2022-09-29T07:42:03;11.40;99.90
19732;DHT22;10017;54.350;18.532;2022-09-29T07:44:39;11.50;99.90
19732;DHT22;10017;54.350;18.532;2022-09-29T07:47:11;11.50;99.90
19732;DHT22;10017;54.350;18.532;2022-09-29T07:49:44;11.70;99.90
19732;DHT22;10017;54.350;18.532;2022-09-29T07:52:18;11.90;99.90
19732;DHT22;10017;54.350;18.532;2022-09-29T07:54:52;12.20;99.90
19732;DHT22;10017;54.350;18.532;2022-09-29T07:57:24;12.30;99.90
19732;DHT22;10017;54.350;18.532;2022-09-29T07:59:56;12.40;99.90
19732;DHT22;10017;54.350;18.532;2022-09-29T08:02:29;12.40;99.90
19732;DHT22;10017;54.350;18.532;2022-09-29T08:05:03;12.50;99.90
19732;DHT22;10017;54.350;18.532;2022-09-29T08:07:38;12.30;99.90
19732;DHT22;10017;54.350;18.532;2022-09-29T08:10:09;12.30;99.90
19732;DHT22;10017;54.350;18.532;2022-09-29T08:12:48;12.50;99.90
19732;DHT22;10017;54.350;18.532;2022-09-29T08:15:20;12.60;99.90
19732;DHT22;10017;54.350;18.532;2022-09-29T08:17:52;12.60;99.90
19732;DHT22;10017;54.350;18.532;2022-09-29T08:20:24;12.50;99.90
19732;DHT22;10017;54.350;18.532;2022-09-29T08:22:58;12.60;99.90
19732;DHT22;10017;54.350;18.532;2022-09-29T08:25:30;12.50;99.90
19732;DHT22;10017;54.350;18.532;2022-09-29T08:28:02;12.60;99.90
19732;DHT22;10017;54.350;18.532;2022-09-29T08:30:33;12.60;99.90
19732;DHT22;10017;54.350;18.532;2022-09-29T08:33:08;12.60;99.90
19732;DHT22;10017;54.350;18.532;2022-09-29T08:35:45;12.50;99.90
19732;DHT22;10017;54.350;18.532;2022-09-29T08:38:17;12.40;99.90
19732;DHT22;10017;54.350;18.532;2022-09-29T08:40:49;12.40;99.90
19732;DHT22;10017;54.350;18.532;2022-09-29T08:43:27;12.40;99.90
19732;DHT22;10017;54.350;18.532;2022-09-29T08:46:10;12.40;99.90
19732;DHT22;10017;54.350;18.532;2022-09-29T08:48:46;12.40;99.90
19732;DHT22;10017;54.350;18.532;2022-09-29T08:51:29;12.30;99.90
19732;DHT22;10017;54.350;18.532;2022-09-29T08:54:19;12.30;99.90
19732;DHT22;10017;54.350;18.532;2022-09-29T08:57:14;12.40;99.90
19732;DHT22;10017;54.350;18.532;2022-09-29T09:00:00;12.40;99.90
19732;DHT22;10017;54.350;18.532;2022-09-29T09:08:25;12.70;99.90
19732;DHT22;10017;54.350;18.532;2022-09-29T09:11:11;12.90;99.90
19732;DHT22;10017;54.350;18.532;2022-09-29T09:13:59;12.90;99.90
19732;DHT22;10017;54.350;18.532;2022-09-29T09:17:00;12.90;99.90
19732;DHT22;10017;54.350;18.532;2022-09-29T09:28:03;13.00;99.90
19732;DHT22;10017;54.350;18.532;2022-09-29T09:30:39;13.10;99.90
19732;DHT22;10017;54.350;18.532;2022-09-29T09:33:15;13.10;99.90
19732;DHT22;10017;54.350;18.532;2022-09-29T09:36:24;13.30;99.90
19732;DHT22;10017;54.350;18.532;2022-09-29T09:41:39;13.50;99.90
19732;DHT22;10017;54.350;18.532;2022-09-29T09:44:19;13.60;99.90
19732;DHT22;10017;54.350;18.532;2022-09-29T09:46:57;13.70;99.90
19732;DHT22;10017;54.350;18.532;2022-09-29T09:49:39;13.90;99.90
19732;DHT22;10017;54.350;18.532;2022-09-29T09:54:49;13.90;99.90
19732;DHT22;10017;54.350;18.532;2022-09-29T10:00:17;13.70;99.90
19732;DHT22;10017;54.350;18.532;2022-09-29T10:02:51;13.70;99.90
19732;DHT22;10017;54.350;18.532;2022-09-29T10:05:28;13.70;92.00
19732;DHT22;10017;54.350;18.532;2022-09-29T10:08:01;13.60;58.80
19732;DHT22;10017;54.350;18.532;2022-09-29T10:10:34;13.60;83.40
19732;DHT22;10017;54.350;18.532;2022-09-29T10:13:14;13.70;64.60
19732;DHT22;10017;54.350;18.532;2022-09-29T10:18:46;13.90;65.60
19732;DHT22;10017;54.350;18.532;2022-09-29T10:24:02;14.00;55.80
19732;DHT22;10017;54.350;18.532;2022-09-29T10:26:39;13.90;47.50
19732;DHT22;10017;54.350;18.532;2022-09-29T10:29:17;14.00;39.70
19732;DHT22;10017;54.350;18.532;2022-09-29T10:32:05;14.20;29.50
19732;DHT22;10017;54.350;18.532;2022-09-29T10:34:41;14.20;10.40
19732;DHT22;10017;54.350;18.532;2022-09-29T10:37:18;14.20;30.60
19732;DHT22;10017;54.350;18.532;2022-09-29T10:39:58;14.20;22.70
19732;DHT22;10017;54.350;18.532;2022-09-29T10:42:34;14.20;1.00
19732;DHT22;10017;54.350;18.532;2022-09-29T10:47:38;13.60;11.50
19732;DHT22;10017;54.350;18.532;2022-09-29T10:50:20;13.30;37.30
19732;DHT22;10017;54.350;18.532;2022-09-29T10:52:56;13.00;58.20
19732;DHT22;10017;54.350;18.532;2022-09-29T10:55:29;13.00;70.20
19732;DHT22;10017;54.350;18.532;2022-09-29T10:58:19;13.00;90.70
19732;DHT22;10017;54.350;18.532;2022-09-29T11:01:12;13.00;61.60
19732;DHT22;10017;54.350;18.532;2022-09-29T11:03:51;13.10;64.50
19732;DHT22;10017;54.350;18.532;2022-09-29T11:06:25;13.20;47.90
19732;DHT22;10017;54.350;18.532;2022-09-29T11:09:04;13.30;33.50
19732;DHT22;10017;54.350;18.532;2022-09-29T11:11:37;13.30;46.70
19732;DHT22;10017;54.350;18.532;2022-09-29T11:14:22;13.30;27.80
19732;DHT22;10017;54.350;18.532;2022-09-29T11:16:58;13.30;34.20
19732;DHT22;10017;54.350;18.532;2022-09-29T11:19:33;13.20;50.00
19732;DHT22;10017;54.350;18.532;2022-09-29T11:28:08;13.20;41.00
19732;DHT22;10017;54.350;18.532;2022-09-29T11:47:03;13.90;5.90
19732;DHT22;10017;54.350;18.532;2022-09-29T11:49:46;14.20;1.00
19732;DHT22;10017;54.350;18.532;2022-09-29T12:00:17;15.30;1.00
19732;DHT22;10017;54.350;18.532;2022-09-29T12:05:48;15.40;1.00
19732;DHT22;10017;54.350;18.532;2022-09-29T12:11:12;15.30;1.00
19732;DHT22;10017;54.350;18.532;2022-09-29T12:19:54;15.00;1.00
19732;DHT22;10017;54.350;18.532;2022-09-29T12:22:27;14.80;1.00
19732;DHT22;10017;54.350;18.532;2022-09-29T12:25:09;14.60;1.00
19732;DHT22;10017;54.350;18.532;2022-09-29T12:27:44;14.50;1.00
19732;DHT22;10017;54.350;18.532;2022-09-29T12:30:27;14.30;1.00
19732;DHT22;10017;54.350;18.532;2022-09-29T12:33:20;14.20;1.00
19732;DHT22;10017;54.350;18.532;2022-09-29T12:36:07;13.90;1.00
19732;DHT22;10017;54.350;18.532;2022-09-29T12:39:09;14.00;1.00
19732;DHT22;10017;54.350;18.532;2022-09-29T12:41:47;14.20;1.00
19732;DHT22;10017;54.350;18.532;2022-09-29T12:44:24;14.50;1.00
19732;DHT22;10017;54.350;18.532;2022-09-29T12:49:36;14.90;1.00
19732;DHT22;10017;54.350;18.532;2022-09-29T12:52:16;15.10;1.00
19732;DHT22;10017;54.350;18.532;2022-09-29T12:54:51;15.20;1.00
19732;DHT22;10017;54.350;18.532;2022-09-29T12:57:24;15.20;1.00
19732;DHT22;10017;54.350;18.532;2022-09-29T13:02:42;15.10;1.00
19732;DHT22;10017;54.350;18.532;2022-09-29T13:24:23;16.20;1.00
19732;DHT22;10017;54.350;18.532;2022-09-29T13:27:45;16.10;1.00
19732;DHT22;10017;54.350;18.532;2022-09-29T13:29:54;16.00;1.00
19732;DHT22;10017;54.350;18.532;2022-09-29T13:32:27;16.00;1.00
19732;DHT22;10017;54.350;18.532;2022-09-29T13:35:00;16.00;1.00
19732;DHT22;10017;54.350;18.532;2022-09-29T13:37:41;15.80;1.00
19732;DHT22;10017;54.350;18.532;2022-09-29T13:40:16;15.50;1.00
19732;DHT22;10017;54.350;18.532;2022-09-29T13:42:48;15.40;1.00
19732;DHT22;10017;54.350;18.532;2022-09-29T13:50:54;15.30;1.00
19732;DHT22;10017;54.350;18.532;2022-09-29T13:53:33;15.40;1.00
19732;DHT22;10017;54.350;18.532;2022-09-29T13:56:09;15.60;1.00
19732;DHT22;10017;54.350;18.532;2022-09-29T14:01:20;15.70;1.00
19732;DHT22;10017;54.350;18.532;2022-09-29T14:04:22;16.10;1.00
19732;DHT22;10017;54.350;18.532;2022-09-29T14:06:51;16.40;1.00
19732;DHT22;10017;54.350;18.532;2022-09-29T14:09:23;16.50;1.00
19732;DHT22;10017;54.350;18.532;2022-09-29T14:12:08;16.30;1.00
19732;DHT22;10017;54.350;18.532;2022-09-29T14:14:41;16.10;1.00
19732;DHT22;10017;54.350;18.532;2022-09-29T14:17:22;16.00;1.00
19732;DHT22;10017;54.350;18.532;2022-09-29T14:20:02;15.80;1.00
19732;DHT22;10017;54.350;18.532;2022-09-29T14:33:22;14.70;1.00
19732;DHT22;10017;54.350;18.532;2022-09-29T14:38:32;14.70;1.00
19732;DHT22;10017;54.350;18.532;2022-09-29T14:43:45;14.60;1.00
19732;DHT22;10017;54.350;18.532;2022-09-29T14:49:50;14.70;1.00
19732;DHT22;10017;54.350;18.532;2022-09-29T14:57:52;14.40;1.00
19732;DHT22;10017;54.350;18.532;2022-09-29T15:00:31;14.30;1.00
19732;DHT22;10017;54.350;18.532;2022-09-29T15:03:04;14.20;1.00
19732;DHT22;10017;54.350;18.532;2022-09-29T15:06:05;14.10;1.00
19732;DHT22;10017;54.350;18.532;2022-09-29T15:08:40;13.90;1.00
19732;DHT22;10017;54.350;18.532;2022-09-29T15:16:55;13.50;3.90
19732;DHT22;10017;54.350;18.532;2022-09-29T15:27:48;13.10;55.20
19732;DHT22;10017;54.350;18.532;2022-09-29T15:30:21;13.00;61.10
19732;DHT22;10017;54.350;18.532;2022-09-29T15:33:00;12.90;74.00
19732;DHT22;10017;54.350;18.532;2022-09-29T15:35:36;12.80;91.20
19732;DHT22;10017;54.350;18.532;2022-09-29T15:40:43;12.60;99.90
19732;DHT22;10017;54.350;18.532;2022-09-29T15:43:24;12.50;99.90
19732;DHT22;10017;54.350;18.532;2022-09-29T15:46:00;12.50;99.90
19732;DHT22;10017;54.350;18.532;2022-09-29T15:48:34;12.40;99.90
19732;DHT22;10017;54.350;18.532;2022-09-29T15:51:08;12.40;99.90
19732;DHT22;10017;54.350;18.532;2022-09-29T15:53:49;12.30;99.90
19732;DHT22;10017;54.350;18.532;2022-09-29T15:56:22;12.20;99.90
19732;DHT22;10017;54.350;18.532;2022-09-29T15:58:55;12.10;99.90
19732;DHT22;10017;54.350;18.532;2022-09-29T16:01:26;12.00;99.90
19732;DHT22;10017;54.350;18.532;2022-09-29T16:03:58;12.00;99.90
19732;DHT22;10017;54.350;18.532;2022-09-29T16:06:32;11.80;99.90
19732;DHT22;10017;54.350;18.532;2022-09-29T16:09:12;11.70;99.90
19732;DHT22;10017;54.350;18.532;2022-09-29T16:11:46;11.70;99.90
19732;DHT22;10017;54.350;18.532;2022-09-29T16:14:22;11.60;99.90
19732;DHT22;10017;54.350;18.532;2022-09-29T16:16:56;11.60;99.90
19732;DHT22;10017;54.350;18.532;2022-09-29T16:19:29;11.50;99.90
19732;DHT22;10017;54.350;18.532;2022-09-29T16:22:03;11.50;99.90
19732;DHT22;10017;54.350;18.532;2022-09-29T16:24:40;11.40;99.90
19732;DHT22;10017;54.350;18.532;2022-09-29T16:30:32;11.20;99.90
19732;DHT22;10017;54.350;18.532;2022-09-29T16:33:19;11.10;99.90
19732;DHT22;10017;54.350;18.532;2022-09-29T16:41:09;10.90;99.90
19732;DHT22;10017;54.350;18.532;2022-09-29T16:43:44;10.80;99.90
19732;DHT22;10017;54.350;18.532;2022-09-29T16:46:20;10.80;99.90
19732;DHT22;10017;54.350;18.532;2022-09-29T16:48:52;10.70;99.90
19732;DHT22;10017;54.350;18.532;2022-09-29T16:51:24;10.70;99.90
19732;DHT22;10017;54.350;18.532;2022-09-29T16:54:14;10.60;99.90
19732;DHT22;10017;54.350;18.532;2022-09-29T16:56:46;10.60;99.90
19732;DHT22;10017;54.350;18.532;2022-09-29T16:59:18;10.50;99.90
19732;DHT22;10017;54.350;18.532;2022-09-29T17:01:51;10.40;99.90
19732;DHT22;10017;54.350;18.532;2022-09-29T17:04:25;10.30;99.90
19732;DHT22;10017;54.350;18.532;2022-09-29T17:06:57;10.30;99.90
19732;DHT22;10017;54.350;18.532;2022-09-29T17:09:29;10.20;99.90
19732;DHT22;10017;54.350;18.532;2022-09-29T17:12:01;10.20;99.90
19732;DHT22;10017;54.350;18.532;2022-09-29T17:14:33;10.10;99.90
19732;DHT22;10017;54.350;18.532;2022-09-29T17:17:05;10.10;99.90
19732;DHT22;10017;54.350;18.532;2022-09-29T17:19:36;10.00;99.90
19732;DHT22;10017;54.350;18.532;2022-09-29T17:22:16;10.00;99.90
19732;DHT22;10017;54.350;18.532;2022-09-29T17:24:50;9.90;99.90
19732;DHT22;10017;54.350;18.532;2022-09-29T17:27:22;9.80;99.90
19732;DHT22;10017;54.350;18.532;2022-09-29T17:30:14;9.80;99.90
19732;DHT22;10017;54.350;18.532;2022-09-29T17:32:48;9.70;99.90
19732;DHT22;10017;54.350;18.532;2022-09-29T17:35:23;9.70;99.90
19732;DHT22;10017;54.350;18.532;2022-09-29T17:37:56;9.60;99.90
19732;DHT22;10017;54.350;18.532;2022-09-29T17:40:36;9.60;99.90
19732;DHT22;10017;54.350;18.532;2022-09-29T17:43:08;9.50;99.90
19732;DHT22;10017;54.350;18.532;2022-09-29T17:45:40;9.50;99.90
19732;DHT22;10017;54.350;18.532;2022-09-29T17:48:13;9.40;99.90
19732;DHT22;10017;54.350;18.532;2022-09-29T17:50:47;9.40;99.90
19732;DHT22;10017;54.350;18.532;2022-09-29T17:53:19;9.30;99.90
19732;DHT22;10017;54.350;18.532;2022-09-29T17:55:52;9.30;99.90
19732;DHT22;10017;54.350;18.532;2022-09-29T17:58:25;9.20;99.90
19732;DHT22;10017;54.350;18.532;2022-09-29T18:00:56;9.20;99.90
19732;DHT22;10017;54.350;18.532;2022-09-29T18:03:28;9.20;99.90
19732;DHT22;10017;54.350;18.532;2022-09-29T18:06:00;9.10;99.90
19732;DHT22;10017;54.350;18.532;2022-09-29T18:08:32;9.10;99.90
19732;DHT22;10017;54.350;18.532;2022-09-29T18:11:04;9.10;99.90
19732;DHT22;10017;54.350;18.532;2022-09-29T18:13:36;9.00;99.90
19732;DHT22;10017;54.350;18.532;2022-09-29T18:16:09;9.00;99.90
19732;DHT22;10017;54.350;18.532;2022-09-29T18:18:45;8.90;99.90
19732;DHT22;10017;54.350;18.532;2022-09-29T18:21:17;8.80;99.90
19732;DHT22;10017;54.350;18.532;2022-09-29T18:23:50;8.80;99.90
19732;DHT22;10017;54.350;18.532;2022-09-29T18:26:21;8.80;99.90
19732;DHT22;10017;54.350;18.532;2022-09-29T18:28:53;8.70;99.90
19732;DHT22;10017;54.350;18.532;2022-09-29T18:31:26;8.70;99.90
19732;DHT22;10017;54.350;18.532;2022-09-29T18:33:59;8.70;99.90
19732;DHT22;10017;54.350;18.532;2022-09-29T18:36:30;8.60;99.90
19732;DHT22;10017;54.350;18.532;2022-09-29T18:39:02;8.60;99.90
19732;DHT22;10017;54.350;18.532;2022-09-29T18:41:34;8.60;99.90
19732;DHT22;10017;54.350;18.532;2022-09-29T18:44:11;8.60;99.90
19732;DHT22;10017;54.350;18.532;2022-09-29T18:46:43;8.50;99.90
19732;DHT22;10017;54.350;18.532;2022-09-29T18:49:16;8.60;99.90
19732;DHT22;10017;54.350;18.532;2022-09-29T18:51:47;8.60;99.90
19732;DHT22;10017;54.350;18.532;2022-09-29T18:54:23;8.50;99.90
19732;DHT22;10017;54.350;18.532;2022-09-29T18:56:56;8.50;99.90
19732;DHT22;10017;54.350;18.532;2022-09-29T18:59:29;8.60;99.90
19732;DHT22;10017;54.350;18.532;2022-09-29T19:02:03;8.60;99.90
19732;DHT22;10017;54.350;18.532;2022-09-29T19:04:35;8.60;99.90
19732;DHT22;10017;54.350;18.532;2022-09-29T19:07:07;8.60;99.90
19732;DHT22;10017;54.350;18.532;2022-09-29T19:09:43;8.50;99.90
19732;DHT22;10017;54.350;18.532;2022-09-29T19:12:15;8.50;99.90
19732;DHT22;10017;54.350;18.532;2022-09-29T19:14:52;8.50;99.90
19732;DHT22;10017;54.350;18.532;2022-09-29T19:17:25;8.40;99.90
19732;DHT22;10017;54.350;18.532;2022-09-29T19:19:57;8.40;99.90
19732;DHT22;10017;54.350;18.532;2022-09-29T19:22:30;8.40;99.90